EGNV/MME METAR and TAF weather

Enter ICAO airport designator
Station Type Date Time Source
EGNV METAR 2019/12/09 05:50 UTC NOAA

EGNV 090550Z 32023G34KT 9999 FEW036 06/01 Q0996


Station Type Date Time Source
EGNV Decoded METAR 2019/12/09 05:50 UTC NOAA

Tees-Side, United Kingdom (EGNV) 54-31N 001-25W
Dec 09, 2019 - 12:50 AM EST / 2019.12.09 0550 UTC
Wind: from the NW (320 degrees) at 26 MPH (23 KT) gusting to 39 MPH (34 KT):0
Visibility: greater than 7 mile(s):0
Sky conditions: mostly clear
Temperature: 42 F (6 C)
Dew Point: 33 F (1 C)
Relative Humidity: 70%
Pressure (altimeter): 29.41 in. Hg (0996 hPa)
ob: EGNV 090550Z 32023G34KT 9999 FEW036 06/01 Q0996
cycle: 6

Station Type Date Time Source
EGNV TAF 2016/01/23 12:00 UTC NOAA

TAF EGNV 231059Z 2312/2321 18008KT 9999 FEW030 PROB40 2319/2321 6000 RADZ BKN014

Example: see airport list